Time;durP1;ratioP1;P1;durP2;ratioP2;P2;SDS_P1;SDS_P2;PMS_P1;PMS_P2;Temp;Humidity;BMP_temperature;BMP_pressure;BME280_temperature;BME280_humidity;BME280_pressure;Samples;Min_cycle;Max_cycle;Signal;HPM_P1;HPM_P2
2021/04/21 00:01:00;;;;;;;16.17;9.67;;;10.80;99.90;;;;;;4318463;33;20203;-77
2021/04/21 00:03:28;;;;;;;16.10;9.60;;;10.80;99.90;;;;;;4321794;33;20171;-78
2021/04/21 00:05:54;;;;;;;19.33;10.43;;;10.80;99.90;;;;;;4321344;33;20535;-78
2021/04/21 00:08:21;;;;;;;17.73;9.90;;;10.80;99.90;;;;;;4321594;33;20145;-78
2021/04/21 00:10:49;;;;;;;14.17;9.57;;;10.80;99.90;;;;;;4320162;33;20161;-77
2021/04/21 00:13:16;;;;;;;18.20;10.50;;;10.80;99.90;;;;;;4320092;33;20472;-78
2021/04/21 00:15:43;;;;;;;18.80;10.43;;;10.80;99.90;;;;;;4320080;33;20152;-77
2021/04/21 00:18:10;;;;;;;15.23;9.90;;;10.80;99.90;;;;;;4319952;33;20203;-78
2021/04/21 00:20:37;;;;;;;18.37;10.70;;;10.80;99.90;;;;;;4320028;33;20209;-78
2021/04/21 00:23:08;;;;;;;17.33;10.83;;;10.80;99.90;;;;;;4321407;33;20228;-78
2021/04/21 00:25:36;;;;;;;17.50;10.93;;;10.80;99.90;;;;;;4320806;33;20153;-77
2021/04/21 00:28:05;;;;;;;17.10;11.17;;;10.80;99.90;;;;;;4319882;33;20153;-77
2021/04/21 00:30:33;;;;;;;16.77;10.83;;;10.80;99.90;;;;;;4321501;33;20150;-77
2021/04/21 00:33:00;;;;;;;19.10;11.47;;;10.70;99.90;;;;;;4318752;33;20208;-77
2021/04/21 00:35:40;;;;;;;17.87;11.23;;;10.70;99.90;;;;;;4319721;33;20211;-77
2021/04/21 00:38:13;;;;;;;20.37;11.83;;;10.60;99.90;;;;;;4321714;33;20464;-77
2021/04/21 00:40:45;;;;;;;18.07;11.53;;;10.60;99.90;;;;;;4320727;33;20467;-78
2021/04/21 00:43:20;;;;;;;20.53;12.87;;;10.50;99.90;;;;;;4321153;33;20180;-77
2021/04/21 00:45:54;;;;;;;17.33;11.10;;;10.50;99.90;;;;;;4321177;33;20172;-77
2021/04/21 00:48:46;;;;;;;20.40;11.53;;;10.40;99.90;;;;;;4321252;33;20145;-78
2021/04/21 00:51:21;;;;;;;18.60;12.07;;;10.40;99.90;;;;;;4323462;33;20200;-77
2021/04/21 00:54:03;;;;;;;18.43;11.90;;;10.40;99.90;;;;;;4323308;33;20203;-77
2021/04/21 00:56:44;;;;;;;21.40;12.03;;;10.40;99.90;;;;;;4323989;33;20514;-77
2021/04/21 00:59:48;;;;;;;23.77;13.10;;;10.40;99.90;;;;;;4323934;33;20141;-78
2021/04/21 01:02:20;;;;;;;20.77;12.80;;;10.30;99.90;;;;;;4322193;33;20154;-78
2021/04/21 01:04:47;;;;;;;20.83;12.53;;;10.30;99.90;;;;;;4324053;33;20157;-77
2021/04/21 01:07:16;;;;;;;20.73;12.37;;;10.30;99.90;;;;;;4322482;33;20185;-78
2021/04/21 01:09:47;;;;;;;21.27;13.13;;;10.30;99.90;;;;;;4323928;33;20502;-78
2021/04/21 01:12:16;;;;;;;23.47;13.33;;;10.30;99.90;;;;;;4324080;33;20154;-78
2021/04/21 01:14:47;;;;;;;25.37;13.73;;;10.30;99.90;;;;;;4323778;33;20406;-78
2021/04/21 01:17:16;;;;;;;23.07;12.63;;;10.20;99.90;;;;;;4323836;33;20149;-78
2021/04/21 01:19:54;;;;;;;22.63;13.63;;;10.20;99.90;;;;;;4323441;33;20430;-78
2021/04/21 01:22:39;;;;;;;21.63;12.90;;;10.20;99.90;;;;;;4322406;33;20278;-78
2021/04/21 01:25:23;;;;;;;21.90;13.40;;;10.30;99.90;;;;;;4323964;33;20150;-77
2021/04/21 01:28:01;;;;;;;20.83;12.90;;;10.10;99.90;;;;;;4322566;33;20148;-77
2021/04/21 01:30:30;;;;;;;22.13;13.37;;;10.00;99.90;;;;;;4323562;33;20144;-77
2021/04/21 01:33:04;;;;;;;22.07;13.70;;;10.00;99.90;;;;;;4321943;33;20191;-77
2021/04/21 01:35:32;;;;;;;24.13;14.20;;;10.00;99.90;;;;;;4323619;33;20152;-78
2021/04/21 01:38:02;;;;;;;22.10;14.27;;;10.00;99.90;;;;;;4322166;33;20191;-78
2021/04/21 01:40:38;;;;;;;23.30;14.07;;;9.90;99.90;;;;;;4323798;33;20145;-77
2021/04/21 01:43:17;;;;;;;23.73;14.50;;;10.00;99.90;;;;;;4323124;33;20216;-78
2021/04/21 01:45:45;;;;;;;25.17;14.83;;;9.90;99.90;;;;;;4323666;33;20149;-78
2021/04/21 01:48:20;;;;;;;23.83;14.93;;;9.90;99.90;;;;;;4321877;33;20408;-78
2021/04/21 01:50:48;;;;;;;26.43;15.17;;;10.00;99.90;;;;;;4321998;33;20144;-78
2021/04/21 01:53:28;;;;;;;26.60;15.53;;;9.90;99.90;;;;;;4321733;33;20482;-78
2021/04/21 01:56:17;;;;;;;24.00;14.93;;;9.90;99.90;;;;;;4322069;33;20161;-78
2021/04/21 01:59:07;;;;;;;27.80;15.27;;;9.90;99.90;;;;;;4323280;33;20315;-78
2021/04/21 02:01:38;;;;;;;24.40;14.57;;;9.90;99.90;;;;;;4322598;33;20199;-78
2021/04/21 02:04:13;;;;;;;24.17;15.27;;;9.80;99.90;;;;;;4323200;33;20185;-78
2021/04/21 02:07:00;;;;;;;27.77;15.57;;;9.80;99.90;;;;;;4321687;33;20157;-77
2021/04/21 02:09:54;;;;;;;26.47;14.73;;;9.80;99.90;;;;;;4321737;33;20431;-77
2021/04/21 02:12:38;;;;;;;26.27;14.93;;;9.80;99.90;;;;;;4321684;33;20200;-77
2021/04/21 02:15:11;;;;;;;27.03;16.07;;;9.70;99.90;;;;;;4322996;33;20204;-78
2021/04/21 02:18:14;;;;;;;25.30;15.17;;;9.80;99.90;;;;;;4323282;33;20145;-77
2021/04/21 02:20:52;;;;;;;25.77;16.00;;;9.90;99.90;;;;;;4276252;33;20229;-78
2021/04/21 02:23:44;;;;;;;29.10;17.83;;;9.90;99.90;;;;;;4276107;33;20373;-78
2021/04/21 02:26:23;;;;;;;30.43;17.53;;;9.90;99.90;;;;;;4276617;33;20189;-78
2021/04/21 02:29:15;;;;;;;30.30;17.80;;;9.90;99.90;;;;;;4277428;33;20462;-78
2021/04/21 02:31:53;;;;;;;30.70;18.30;;;9.80;99.90;;;;;;4274477;33;20181;-77
2021/04/21 02:34:44;;;;;;;28.90;18.47;;;9.80;99.90;;;;;;4277351;33;20555;-78
2021/04/21 02:37:19;;;;;;;32.80;18.63;;;9.90;99.90;;;;;;4277080;33;20403;-78
2021/04/21 02:40:20;;;;;;;29.47;16.67;;;9.90;99.90;;;;;;4275861;33;20162;-78
2021/04/21 02:43:20;;;;;;;29.00;17.80;;;9.90;99.90;;;;;;4262087;33;20437;-78
2021/04/21 02:46:10;;;;;;;30.40;18.93;;;9.90;99.90;;;;;;4262992;33;20422;-78
2021/04/21 02:48:44;;;;;;;30.40;19.27;;;9.90;99.90;;;;;;4261842;33;20158;-78
2021/04/21 02:51:20;;;;;;;30.80;18.87;;;9.80;99.90;;;;;;4261661;33;20155;-79
2021/04/21 02:54:20;;;;;;;29.70;19.53;;;9.80;99.90;;;;;;4263012;33;20213;-79
2021/04/21 02:57:01;;;;;;;32.90;20.20;;;9.90;99.90;;;;;;4226766;33;20181;-79
2021/04/21 02:59:45;;;;;;;36.53;20.73;;;9.80;99.90;;;;;;4261378;33;20242;-79
2021/04/21 03:02:17;;;;;;;31.27;20.50;;;9.80;99.90;;;;;;4261265;33;20174;-78
2021/04/21 03:04:51;;;;;;;34.90;21.37;;;9.80;99.90;;;;;;4263138;33;20185;-77
2021/04/21 03:07:43;;;;;;;34.90;20.83;;;9.80;99.90;;;;;;4261986;33;20603;-78
2021/04/21 03:10:14;;;;;;;37.70;22.03;;;9.70;99.90;;;;;;4263374;33;20616;-79
2021/04/21 03:12:50;;;;;;;32.10;20.40;;;9.60;99.90;;;;;;4260896;33;20529;-78
2021/04/21 03:15:21;;;;;;;33.40;21.03;;;9.60;99.90;;;;;;4262733;33;20228;-79
2021/04/21 03:17:52;;;;;;;34.33;21.10;;;9.60;99.90;;;;;;4262989;33;20199;-79
2021/04/21 03:20:22;;;;;;;34.83;20.93;;;9.70;99.90;;;;;;4271203;33;20541;-79
2021/04/21 03:22:57;;;;;;;36.70;21.50;;;9.70;99.90;;;;;;4275019;33;20201;-79
2021/04/21 03:25:30;;;;;;;33.87;20.97;;;9.70;99.90;;;;;;4275284;33;20213;-79
2021/04/21 03:28:01;;;;;;;37.17;21.60;;;9.60;99.90;;;;;;4276505;33;20174;-79
2021/04/21 03:30:30;;;;;;;33.43;21.07;;;9.70;99.90;;;;;;4275077;33;20202;-79
2021/04/21 03:33:09;;;;;;;36.77;22.27;;;9.60;99.90;;;;;;4294339;33;20165;-81
2021/04/21 03:35:37;;;;;;;38.93;22.70;;;9.50;99.90;;;;;;4321100;33;20157;-76
2021/04/21 03:38:10;;;;;;;33.90;21.93;;;9.50;99.90;;;;;;4320522;33;20195;-76
2021/04/21 03:40:38;;;;;;;35.30;21.53;;;9.60;99.90;;;;;;4322512;33;20504;-76
2021/04/21 03:43:05;;;;;;;38.17;22.37;;;9.60;99.90;;;;;;4321832;33;20215;-75
2021/04/21 03:45:33;;;;;;;35.83;21.70;;;9.70;99.90;;;;;;4319937;33;20441;-75
2021/04/21 03:48:03;;;;;;;37.60;22.37;;;9.60;99.90;;;;;;4319971;33;20484;-76
2021/04/21 03:50:30;;;;;;;37.90;23.20;;;9.60;99.90;;;;;;4324861;33;20184;-76
2021/04/21 03:53:06;;;;;;;37.77;22.87;;;9.50;99.90;;;;;;4312925;33;20161;-77
2021/04/21 03:55:34;;;;;;;37.23;23.27;;;9.50;99.90;;;;;;4333209;33;20187;-76
2021/04/21 03:58:08;;;;;;;42.33;23.20;;;9.50;99.90;;;;;;4321340;33;20156;-76
2021/04/21 04:00:39;;;;;;;39.77;22.73;;;9.50;99.90;;;;;;4321649;33;20162;-76
2021/04/21 04:03:09;;;;;;;37.73;23.23;;;9.50;99.90;;;;;;4322235;33;20169;-76
2021/04/21 04:05:54;;;;;;;37.80;23.70;;;9.40;99.90;;;;;;4335895;33;20357;-75
2021/04/21 04:08:24;;;;;;;38.60;23.53;;;9.50;99.90;;;;;;4334671;33;20293;-75
2021/04/21 04:10:52;;;;;;;38.77;23.27;;;9.60;99.90;;;;;;4336878;33;20430;-76
2021/04/21 04:13:20;;;;;;;37.13;23.93;;;9.50;99.90;;;;;;4334644;33;20212;-77
2021/04/21 04:15:51;;;;;;;39.50;25.40;;;9.60;99.90;;;;;;4336014;33;20156;-76
2021/04/21 04:18:18;;;;;;;43.33;25.90;;;9.70;99.90;;;;;;4334551;33;20191;-76
2021/04/21 04:20:45;;;;;;;44.47;26.23;;;9.70;99.90;;;;;;4335945;33;20181;-75
2021/04/21 04:23:13;;;;;;;41.03;25.87;;;9.70;99.90;;;;;;4334518;33;20164;-75
2021/04/21 04:25:46;;;;;;;44.27;26.57;;;9.60;99.90;;;;;;4333613;33;20218;-75
2021/04/21 04:28:12;;;;;;;41.77;26.17;;;9.70;99.90;;;;;;4334399;33;20523;-75
2021/04/21 04:30:40;;;;;;;41.57;24.80;;;9.70;99.90;;;;;;4334293;33;20390;-76
2021/04/21 04:33:08;;;;;;;42.73;24.90;;;9.70;99.90;;;;;;4335919;33;20148;-76
2021/04/21 04:35:37;;;;;;;42.63;25.23;;;9.60;99.90;;;;;;4334302;33;20171;-76
2021/04/21 04:38:04;;;;;;;43.33;25.53;;;9.50;99.90;;;;;;4336007;33;20171;-76
2021/04/21 04:40:33;;;;;;;42.43;25.17;;;9.50;99.90;;;;;;4334724;33;20203;-76
2021/04/21 04:43:00;;;;;;;38.57;24.53;;;9.40;99.90;;;;;;4334537;33;20196;-76
2021/04/21 04:45:29;;;;;;;42.27;25.77;;;9.30;99.90;;;;;;4334260;33;20187;-76
2021/04/21 04:48:03;;;;;;;41.20;24.80;;;9.30;99.90;;;;;;4334250;33;20180;-75
2021/04/21 04:50:31;;;;;;;45.20;25.50;;;9.30;99.90;;;;;;4335574;33;20169;-76
2021/04/21 04:52:59;;;;;;;40.97;25.60;;;9.20;99.90;;;;;;4334526;33;20188;-77
2021/04/21 04:55:27;;;;;;;41.07;24.80;;;9.30;99.90;;;;;;4334009;33;20191;-75
2021/04/21 04:57:56;;;;;;;39.57;24.43;;;9.30;99.90;;;;;;4335394;33;20533;-76
2021/04/21 05:00:26;;;;;;;38.83;24.33;;;9.30;99.90;;;;;;4335804;33;20172;-77
2021/04/21 05:03:19;;;;;;;38.80;24.00;;;9.40;99.90;;;;;;4335579;33;20196;-75
2021/04/21 05:05:45;;;;;;;37.83;23.73;;;9.40;99.90;;;;;;4335591;33;20211;-75
2021/04/21 05:08:15;;;;;;;37.90;23.23;;;9.50;99.90;;;;;;4334133;33;20148;-76
2021/04/21 05:10:58;;;;;;;38.97;24.17;;;9.60;99.90;;;;;;4335832;33;20173;-76
2021/04/21 05:13:29;;;;;;;36.67;23.40;;;9.60;99.90;;;;;;4334409;33;20210;-76
2021/04/21 05:15:56;;;;;;;39.53;24.13;;;9.70;99.90;;;;;;4336076;33;20468;-76
2021/04/21 05:18:22;;;;;;;36.63;22.10;;;9.70;99.90;;;;;;4335459;33;20455;-76
2021/04/21 05:21:07;;;;;;;37.57;22.83;;;9.80;99.90;;;;;;4334014;33;20175;-76
2021/04/21 05:24:19;;;;;;;37.80;23.23;;;9.90;99.90;;;;;;4334072;33;20161;-76
2021/04/21 05:27:08;;;;;;;33.70;21.30;;;10.10;99.90;;;;;;4334317;33;20148;-76
2021/04/21 05:30:01;;;;;;;35.03;22.27;;;10.10;99.90;;;;;;4335092;33;20204;-76
2021/04/21 05:32:45;;;;;;;38.20;22.40;;;10.20;99.90;;;;;;4334211;33;20176;-76
2021/04/21 05:35:37;;;;;;;35.03;20.97;;;10.30;99.90;;;;;;4335454;33;20161;-74
2021/04/21 05:38:41;;;;;;;32.07;21.63;;;10.40;99.90;;;;;;4336660;33;20164;-76
2021/04/21 05:41:39;;;;;;;33.33;20.43;;;10.50;99.90;;;;;;4336930;33;20160;-76
2021/04/21 05:44:27;;;;;;;33.07;20.73;;;10.60;99.90;;;;;;4337389;33;20199;-75
2021/04/21 05:47:24;;;;;;;34.93;20.53;;;10.60;99.90;;;;;;4336566;33;20421;-75
2021/04/21 05:49:59;;;;;;;32.73;20.27;;;10.60;99.90;;;;;;4336691;33;20152;-75
2021/04/21 05:52:47;;;;;;;36.87;20.90;;;10.70;99.90;;;;;;4338000;33;20156;-76
2021/04/21 05:55:33;;;;;;;32.33;20.37;;;10.80;99.90;;;;;;4336689;33;20172;-75
2021/04/21 05:58:37;;;;;;;32.90;20.87;;;10.70;99.90;;;;;;4336649;33;20203;-75
2021/04/21 06:01:18;;;;;;;30.90;19.87;;;10.60;99.90;;;;;;4336591;33;20231;-75
2021/04/21 06:03:50;;;;;;;31.00;20.47;;;10.70;99.90;;;;;;4336969;33;20203;-75
2021/04/21 06:06:16;;;;;;;33.53;20.23;;;10.80;99.90;;;;;;4338434;33;20146;-75
2021/04/21 06:08:43;;;;;;;32.43;21.43;;;10.80;99.90;;;;;;4338025;33;20168;-75
2021/04/21 06:11:29;;;;;;;30.13;19.90;;;10.80;99.90;;;;;;4336440;33;20208;-75
2021/04/21 06:13:58;;;;;;;33.67;20.70;;;10.70;99.90;;;;;;4336409;33;20183;-75
2021/04/21 06:16:27;;;;;;;32.33;19.97;;;10.90;99.90;;;;;;4336532;33;20432;-75
2021/04/21 06:19:00;;;;;;;31.13;19.90;;;10.90;99.90;;;;;;4336143;33;20372;-75
2021/04/21 06:21:34;;;;;;;30.70;19.23;;;11.00;99.90;;;;;;4337742;33;20199;-76
2021/04/21 06:24:00;;;;;;;30.87;18.77;;;11.20;99.90;;;;;;4335983;33;20192;-76
2021/04/21 06:26:30;;;;;;;30.00;18.53;;;11.20;99.90;;;;;;4335985;33;20153;-74
2021/04/21 06:29:06;;;;;;;30.30;18.60;;;11.20;99.90;;;;;;4336015;33;20440;-75
2021/04/21 06:31:36;;;;;;;30.27;18.90;;;11.30;99.90;;;;;;4337503;33;20140;-75
2021/04/21 06:34:05;;;;;;;29.07;18.30;;;11.30;99.90;;;;;;4337279;33;20362;-73
2021/04/21 06:36:39;;;;;;;29.30;17.80;;;11.50;99.90;;;;;;4335731;33;20161;-75
2021/04/21 06:39:07;;;;;;;28.50;16.73;;;11.70;99.90;;;;;;4335780;33;20144;-74
2021/04/21 06:41:34;;;;;;;29.10;17.70;;;11.80;99.90;;;;;;4337048;33;20476;-75
2021/04/21 06:44:01;;;;;;;25.27;16.67;;;11.80;99.90;;;;;;4337207;33;20499;-75
2021/04/21 06:46:27;;;;;;;26.20;16.77;;;11.80;99.90;;;;;;4335732;33;20217;-76
2021/04/21 06:48:56;;;;;;;26.27;16.73;;;11.90;99.90;;;;;;4334823;33;20152;-75
2021/04/21 06:51:28;;;;;;;27.03;16.80;;;12.00;99.90;;;;;;4335797;33;20172;-74
2021/04/21 06:53:55;;;;;;;29.03;17.70;;;11.90;99.90;;;;;;4336590;33;20215;-76
2021/04/21 06:56:31;;;;;;;26.73;17.10;;;11.80;99.90;;;;;;4335389;33;20536;-76
2021/04/21 06:58:59;;;;;;;27.47;17.90;;;11.80;99.90;;;;;;4336205;33;20196;-75
2021/04/21 07:01:30;;;;;;;26.60;16.97;;;11.80;99.90;;;;;;4335562;33;20156;-76
2021/04/21 07:04:09;;;;;;;28.30;17.00;;;11.80;99.90;;;;;;4336882;33;20175;-76
2021/04/21 07:06:37;;;;;;;28.97;15.77;;;11.70;99.90;;;;;;4336604;33;20209;-76
2021/04/21 07:09:17;;;;;;;27.10;17.07;;;11.60;99.90;;;;;;4335505;33;20213;-71
2021/04/21 07:11:46;;;;;;;27.70;16.80;;;11.60;99.90;;;;;;4321885;33;20188;-71
2021/04/21 07:14:18;;;;;;;28.73;17.03;;;11.80;99.90;;;;;;4318121;33;20173;-71
2021/04/21 07:16:45;;;;;;;26.23;16.57;;;11.90;99.90;;;;;;4320067;33;20189;-72
2021/04/21 07:19:14;;;;;;;27.87;16.57;;;11.90;99.90;;;;;;4321416;33;20157;-71
2021/04/21 07:21:43;;;;;;;29.43;16.90;;;12.10;99.90;;;;;;4320132;33;20393;-72
2021/04/21 07:24:12;;;;;;;26.03;16.23;;;12.20;99.90;;;;;;4321018;33;20169;-73
2021/04/21 07:26:44;;;;;;;24.70;15.80;;;12.40;99.90;;;;;;4321035;33;20146;-70
2021/04/21 07:29:18;;;;;;;23.97;14.80;;;12.40;99.90;;;;;;4320530;33;20208;-72
2021/04/21 07:31:45;;;;;;;23.20;13.73;;;12.60;99.90;;;;;;4321983;33;20278;-71
2021/04/21 07:34:30;;;;;;;21.70;13.83;;;12.80;99.90;;;;;;4319946;33;20163;-73
2021/04/21 07:36:57;;;;;;;22.03;13.30;;;12.80;99.90;;;;;;4320030;33;20157;-72
2021/04/21 07:39:32;;;;;;;19.00;12.30;;;12.90;99.90;;;;;;4320213;33;20582;-71
2021/04/21 07:42:00;;;;;;;22.33;12.43;;;13.00;99.00;;;;;;4320298;33;20156;-73
2021/04/21 07:44:36;;;;;;;19.53;12.47;;;13.10;98.30;;;;;;4308488;33;20472;-72
2021/04/21 07:47:06;;;;;;;19.23;12.33;;;13.20;98.30;;;;;;4322165;33;20224;-72
2021/04/21 07:49:34;;;;;;;20.17;11.87;;;13.20;97.80;;;;;;4319981;33;20161;-70
2021/04/21 07:52:02;;;;;;;17.23;10.70;;;13.50;96.50;;;;;;4320413;33;20148;-69
2021/04/21 07:54:30;;;;;;;15.50;9.93;;;13.60;94.00;;;;;;4321011;33;20171;-70
2021/04/21 07:57:03;;;;;;;15.87;9.70;;;13.70;92.10;;;;;;4321356;33;20207;-70
2021/04/21 07:59:35;;;;;;;17.03;9.43;;;13.80;91.20;;;;;;4319754;33;20401;-69
2021/04/21 08:02:11;;;;;;;16.73;9.87;;;13.90;90.20;;;;;;4321561;33;20159;-69
2021/04/21 08:04:55;;;;;;;15.13;9.77;;;14.20;88.60;;;;;;4320955;33;20149;-70
2021/04/21 08:07:41;;;;;;;14.60;10.00;;;15.10;83.90;;;;;;4321329;33;20145;-71
2021/04/21 08:10:20;;;;;;;16.30;10.10;;;15.50;80.00;;;;;;4319835;33;20369;-72
2021/04/21 08:12:46;;;;;;;15.87;10.83;;;15.60;79.00;;;;;;4319909;33;20188;-70
2021/04/21 08:15:13;;;;;;;16.40;11.00;;;15.40;79.60;;;;;;4319070;33;20419;-72
2021/04/21 08:17:57;;;;;;;18.63;11.37;;;15.30;80.30;;;;;;4320508;33;20224;-72
2021/04/21 08:20:40;;;;;;;21.50;12.20;;;15.10;80.50;;;;;;4320755;33;20187;-72
2021/04/21 08:23:26;;;;;;;18.97;12.50;;;14.60;82.30;;;;;;4319797;33;20223;-72
2021/04/21 08:25:53;;;;;;;23.67;13.40;;;14.60;84.60;;;;;;4319253;33;20341;-72
2021/04/21 08:28:23;;;;;;;21.23;13.53;;;14.40;85.00;;;;;;4318430;33;20417;-72
2021/04/21 08:30:59;;;;;;;24.43;14.87;;;14.20;87.30;;;;;;4319721;33;20142;-70
2021/04/21 08:33:30;;;;;;;28.43;15.17;;;13.90;91.30;;;;;;4319014;33;20220;-73
2021/04/21 08:35:57;;;;;;;24.17;14.40;;;13.90;93.40;;;;;;4319551;33;20176;-68
2021/04/21 08:38:24;;;;;;;22.93;14.53;;;13.80;93.90;;;;;;4319757;33;20192;-69
2021/04/21 08:40:50;;;;;;;23.33;14.87;;;13.60;94.30;;;;;;4319914;33;20208;-68
2021/04/21 08:43:20;;;;;;;28.80;15.57;;;13.40;95.40;;;;;;4320342;33;20164;-69
2021/04/21 08:45:47;;;;;;;21.63;14.77;;;13.30;97.00;;;;;;4320328;33;20219;-68
2021/04/21 08:48:13;;;;;;;25.37;15.40;;;13.30;97.50;;;;;;4318954;33;20207;-69
2021/04/21 08:50:41;;;;;;;24.03;15.00;;;13.50;97.90;;;;;;4319106;33;20165;-69
2021/04/21 08:53:09;;;;;;;24.47;15.63;;;13.50;98.70;;;;;;4319374;33;20441;-69
2021/04/21 08:55:38;;;;;;;26.73;15.90;;;13.70;98.60;;;;;;4318910;33;20523;-68
2021/04/21 08:58:07;;;;;;;25.57;16.10;;;13.70;98.40;;;;;;4319020;33;20158;-69
2021/04/21 09:00:34;;;;;;;27.03;16.37;;;13.80;99.20;;;;;;4319239;33;20209;-70
2021/04/21 09:03:01;;;;;;;27.87;16.23;;;13.90;99.80;;;;;;4320519;33;20157;-71
2021/04/21 09:05:28;;;;;;;28.03;16.80;;;13.90;98.80;;;;;;4320677;33;20164;-68
2021/04/21 09:07:55;;;;;;;24.03;16.43;;;14.20;99.90;;;;;;4318488;33;20158;-67
2021/04/21 09:10:22;;;;;;;26.30;16.20;;;14.10;98.50;;;;;;4318931;33;20194;-69
2021/04/21 09:12:48;;;;;;;24.00;15.33;;;14.10;98.30;;;;;;4321181;33;20207;-68
2021/04/21 09:15:17;;;;;;;24.90;15.30;;;13.90;98.50;;;;;;4323386;33;20201;-69
2021/04/21 09:17:51;;;;;;;23.93;15.60;;;14.20;97.30;;;;;;4322872;33;20475;-71
2021/04/21 09:20:24;;;;;;;23.33;15.27;;;14.20;98.80;;;;;;4315607;33;20152;-71
2021/04/21 09:23:05;;;;;;;25.60;15.20;;;14.70;95.70;;;;;;4316757;33;20192;-72
2021/04/21 09:25:38;;;;;;;24.80;15.53;;;15.00;94.20;;;;;;4320841;33;20183;-73
2021/04/21 09:28:05;;;;;;;27.00;16.10;;;15.20;94.40;;;;;;4320620;33;20453;-72
2021/04/21 09:30:36;;;;;;;25.70;15.07;;;15.50;94.10;;;;;;4321639;33;20152;-73
2021/04/21 09:33:05;;;;;;;25.57;15.30;;;16.10;92.40;;;;;;4321855;33;20153;-74
2021/04/21 09:35:44;;;;;;;26.47;15.37;;;16.90;90.90;;;;;;4321680;33;20184;-74
2021/04/21 09:38:16;;;;;;;25.50;15.30;;;17.10;85.90;;;;;;4321360;33;20404;-72
2021/04/21 09:40:54;;;;;;;20.67;14.00;;;16.80;85.70;;;;;;4321815;33;20176;-73
2021/04/21 09:43:23;;;;;;;22.77;14.73;;;16.80;84.60;;;;;;4321702;33;20157;-72
2021/04/21 09:45:52;;;;;;;21.93;13.90;;;17.10;84.40;;;;;;4319787;33;20364;-71
2021/04/21 09:48:38;;;;;;;21.47;13.80;;;17.40;81.50;;;;;;4321270;33;20184;-71
2021/04/21 09:51:10;;;;;;;21.33;13.33;;;17.60;78.90;;;;;;4321832;33;20213;-71
2021/04/21 09:53:39;;;;;;;19.17;13.23;;;18.20;78.10;;;;;;4319919;33;20156;-71
2021/04/21 09:56:16;;;;;;;19.80;12.77;;;18.50;73.90;;;;;;4321120;33;20475;-73
2021/04/21 09:58:43;;;;;;;19.07;12.40;;;18.70;71.50;;;;;;4322507;33;20187;-72
2021/04/21 10:01:37;;;;;;;20.43;13.60;;;19.00;69.60;;;;;;4321197;33;20493;-72
2021/04/21 10:04:16;;;;;;;17.17;12.00;;;19.10;65.20;;;;;;4316776;33;20211;-72
2021/04/21 10:06:50;;;;;;;18.40;11.60;;;19.20;65.70;;;;;;4320691;33;20253;-69
2021/04/21 10:09:32;;;;;;;17.07;11.10;;;19.70;66.80;;;;;;4320764;33;20169;-71
2021/04/21 10:12:14;;;;;;;18.87;11.87;;;19.90;60.30;;;;;;4319817;33;20165;-72
2021/04/21 10:14:42;;;;;;;15.47;9.87;;;20.20;59.90;;;;;;4319986;33;20241;-71
2021/04/21 10:17:08;;;;;;;14.80;9.20;;;20.50;57.30;;;;;;4320595;33;20202;-71
2021/04/21 10:19:35;;;;;;;14.67;9.13;;;20.70;57.50;;;;;;4321939;33;20206;-71
2021/04/21 10:22:03;;;;;;;14.43;8.70;;;21.20;55.60;;;;;;4320483;33;20242;-72
2021/04/21 10:24:30;;;;;;;13.93;8.57;;;20.90;51.90;;;;;;4320482;33;20178;-71
2021/04/21 10:26:57;;;;;;;12.83;7.70;;;20.80;53.50;;;;;;4320271;33;20157;-70
2021/04/21 10:29:24;;;;;;;14.13;6.97;;;21.00;52.60;;;;;;4321021;33;20166;-71
2021/04/21 10:32:04;;;;;;;15.23;8.00;;;21.20;50.90;;;;;;4320320;33;20459;-68
2021/04/21 10:34:42;;;;;;;15.30;8.40;;;21.30;50.20;;;;;;4320526;33;20157;-70
2021/04/21 10:37:19;;;;;;;14.07;8.30;;;21.30;50.20;;;;;;4320515;33;20156;-71
2021/04/21 10:40:21;;;;;;;11.33;7.30;;;21.30;52.80;;;;;;4321515;33;20187;-70
2021/04/21 10:43:06;;;;;;;17.57;7.63;;;22.00;48.80;;;;;;4320878;33;20161;-70
2021/04/21 10:45:57;;;;;;;12.30;6.80;;;21.90;49.20;;;;;;4320612;33;20399;-70
2021/04/21 10:48:39;;;;;;;12.93;7.00;;;21.50;47.70;;;;;;4315449;33;20172;-71
2021/04/21 10:51:41;;;;;;;9.37;6.17;;;21.80;48.20;;;;;;4320182;33;20228;-70
2021/04/21 10:54:13;;;;;;;10.50;6.10;;;21.80;45.30;;;;;;4319735;33;20498;-67
2021/04/21 10:56:45;;;;;;;9.67;6.27;;;21.40;44.90;;;;;;4320476;33;20157;-68
2021/04/21 11:00:15;;;;;;;12.40;6.27;;;21.30;46.70;;;;;;4319770;33;20216;-71
2021/04/21 11:03:12;;;;;;;12.23;6.70;;;21.60;46.80;;;;;;4321364;33;20162;-70
2021/04/21 11:05:58;;;;;;;12.97;7.20;;;21.90;46.60;;;;;;4320207;33;20493;-69
2021/04/21 11:12:25;;;;;;;11.20;5.60;;;22.30;44.20;;;;;;4289657;33;20196;-71
2021/04/21 11:15:01;;;;;;;9.07;5.00;;;21.90;42.10;;;;;;4289727;33;20162;-70
2021/04/21 11:18:21;;;;;;;11.50;5.23;;;21.50;43.60;;;;;;4284445;33;20161;-69
2021/04/21 11:21:09;;;;;;;9.13;4.43;;;21.30;42.80;;;;;;4244973;33;20229;-71
2021/04/21 11:24:05;;;;;;;8.87;4.90;;;21.30;43.50;;;;;;4246356;33;20382;-71
2021/04/21 11:26:56;;;;;;;7.50;4.90;;;21.50;43.50;;;;;;4245288;33;20201;-70
2021/04/21 11:29:43;;;;;;;6.77;4.53;;;21.90;42.40;;;;;;4246919;33;20197;-70
2021/04/21 11:32:40;;;;;;;8.93;5.33;;;22.10;41.40;;;;;;4204845;34;20164;-70
2021/04/21 11:35:35;;;;;;;8.70;5.20;;;22.10;42.30;;;;;;4204467;34;20178;-69
2021/04/21 11:38:51;;;;;;;9.70;5.40;;;22.60;41.80;;;;;;4204313;34;20163;-68
2021/04/21 11:41:29;;;;;;;11.00;5.10;;;22.40;42.80;;;;;;4205067;34;20504;-71
2021/04/21 11:44:42;;;;;;;8.93;4.83;;;22.60;41.80;;;;;;4204406;34;20178;-69
2021/04/21 11:47:38;;;;;;;11.13;5.50;;;22.30;40.90;;;;;;4191190;34;20205;-70
2021/04/21 11:50:29;;;;;;;8.83;4.57;;;22.30;41.10;;;;;;4217422;34;20167;-69
2021/04/21 11:53:13;;;;;;;8.33;4.83;;;22.90;42.30;;;;;;4219102;34;20159;-71
2021/04/21 11:56:06;;;;;;;9.00;4.68;;;23.70;41.20;;;;;;4204136;34;20167;-70
2021/04/21 11:59:02;;;;;;;10.60;5.20;;;24.50;40.00;;;;;;4232025;33;20653;-70
2021/04/21 12:01:39;;;;;;;9.03;4.93;;;25.20;39.10;;;;;;4233690;33;20159;-71
2021/04/21 12:07:21;;;;;;;9.10;5.40;;;24.70;38.40;;;;;;4230540;34;20171;-70
2021/04/21 12:10:03;;;;;;;8.82;5.00;;;23.50;40.30;;;;;;4238452;33;20469;-70
2021/04/21 12:12:29;;;;;;;8.75;5.53;;;24.80;41.60;;;;;;4246041;33;20185;-70
2021/04/21 12:15:04;;;;;;;9.55;5.85;;;24.80;39.50;;;;;;4250664;33;20310;-70
2021/04/21 12:17:31;;;;;;;8.70;5.62;;;24.60;37.80;;;;;;4251218;33;20218;-70
2021/04/21 12:19:59;;;;;;;10.05;5.80;;;24.90;38.40;;;;;;4247205;33;20170;-71
2021/04/21 12:22:42;;;;;;;9.35;5.90;;;24.90;38.10;;;;;;4249623;33;20174;-70
2021/04/21 12:25:10;;;;;;;8.15;6.12;;;24.60;38.50;;;;;;4293090;33;20154;-70
2021/04/21 12:27:36;;;;;;;10.32;6.22;;;24.70;39.40;;;;;;4312811;33;20187;-68
2021/04/21 12:30:13;;;;;;;6.78;5.35;;;24.80;38.70;;;;;;4307330;33;20165;-69
2021/04/21 12:32:41;;;;;;;8.77;5.78;;;25.30;39.50;;;;;;4316923;33;20665;-69
2021/04/21 12:35:09;;;;;;;10.65;6.50;;;25.10;38.00;;;;;;4318725;33;20237;-70
2021/04/21 12:37:37;;;;;;;8.80;5.60;;;24.30;38.00;;;;;;4309649;33;20222;-70
2021/04/21 12:40:16;;;;;;;10.80;6.28;;;23.90;39.40;;;;;;4315070;33;20287;-72
2021/04/21 12:42:42;;;;;;;8.32;5.75;;;24.00;40.50;;;;;;4313125;33;20281;-69
2021/04/21 12:45:09;;;;;;;9.13;6.25;;;23.90;40.00;;;;;;4306710;33;20172;-70
2021/04/21 12:47:36;;;;;;;9.07;6.22;;;23.80;39.80;;;;;;4318879;33;20191;-71
2021/04/21 12:50:08;;;;;;;10.73;6.07;;;23.70;40.40;;;;;;4319172;33;20165;-70
2021/04/21 12:52:35;;;;;;;9.43;5.70;;;23.70;40.40;;;;;;4319144;33;20146;-71
2021/04/21 12:55:02;;;;;;;12.82;5.65;;;23.60;40.10;;;;;;4318498;33;20207;-71
2021/04/21 12:57:46;;;;;;;11.38;5.62;;;23.00;41.20;;;;;;4320380;33;20160;-71
2021/04/21 13:00:13;;;;;;;10.23;5.40;;;23.50;41.00;;;;;;4319558;33;20203;-71
2021/04/21 13:02:52;;;;;;;7.07;5.00;;;23.80;40.10;;;;;;4319474;33;20420;-73
2021/04/21 13:05:45;;;;;;;8.57;5.20;;;24.00;39.80;;;;;;4319683;33;20464;-72
2021/04/21 13:08:21;;;;;;;7.78;4.97;;;25.20;39.20;;;;;;4319332;33;20172;-71
2021/04/21 13:10:48;;;;;;;8.45;5.18;;;24.80;37.60;;;;;;4320009;33;20144;-71
2021/04/21 13:13:27;;;;;;;9.07;5.17;;;23.70;38.30;;;;;;4319321;33;20528;-71
2021/04/21 13:15:55;;;;;;;7.72;4.80;;;23.70;39.40;;;;;;4319731;33;20551;-71
2021/04/21 13:18:35;;;;;;;9.27;5.00;;;24.00;39.70;;;;;;4319321;33;20149;-71
2021/04/21 13:21:06;;;;;;;11.45;5.20;;;24.10;38.40;;;;;;4319448;33;20232;-72
2021/04/21 13:23:34;;;;;;;10.15;5.37;;;24.10;38.30;;;;;;4319237;33;20146;-71